Time;durP1;ratioP1;P1;durP2;ratioP2;P2;SDS_P1;SDS_P2;PMS_P1;PMS_P2;Temp;Humidity;BMP_temperature;BMP_pressure;BME280_temperature;BME280_humidity;BME280_pressure;Samples;Min_cycle;Max_cycle;Signal;HPM_P1;HPM_P2
2021/04/28 00:01:08;;;;;;;7.93;4.37;;;11.90;1.00;;;;;;5081669;28;20247;-83
2021/04/28 00:03:34;;;;;;;6.43;3.77;;;11.90;1.00;;;;;;5092709;28;20206;-82
2021/04/28 00:06:00;;;;;;;7.97;4.20;;;11.80;1.00;;;;;;5076582;28;20223;-85
2021/04/28 00:08:25;;;;;;;6.90;3.83;;;11.80;1.00;;;;;;5089163;28;20180;-79
2021/04/28 00:10:51;;;;;;;5.20;3.83;;;11.80;1.00;;;;;;5071950;28;20597;-83
2021/04/28 00:13:17;;;;;;;7.40;4.10;;;11.70;1.00;;;;;;5081449;28;20241;-78
2021/04/28 00:15:46;;;;;;;12.33;4.30;;;11.60;1.00;;;;;;5079052;28;20196;-84
2021/04/28 00:18:15;;;;;;;6.33;3.80;;;11.80;1.00;;;;;;5088990;28;20175;-79
2021/04/28 00:20:43;;;;;;;7.63;3.60;;;11.70;1.00;;;;;;5077595;28;20187;-85
2021/04/28 00:23:09;;;;;;;6.20;3.80;;;11.60;1.00;;;;;;5083504;28;20199;-83
2021/04/28 00:25:37;;;;;;;5.23;3.30;;;11.60;1.00;;;;;;5085070;28;20279;-85
2021/04/28 00:28:06;;;;;;;5.43;3.67;;;11.50;1.00;;;;;;5076029;28;20578;-83
2021/04/28 00:30:33;;;;;;;6.87;3.50;;;11.50;1.00;;;;;;5059893;28;20175;-78
2021/04/28 00:32:59;;;;;;;7.97;3.80;;;11.50;1.00;;;;;;5084542;28;20169;-82
2021/04/28 00:35:25;;;;;;;7.20;3.70;;;11.40;1.00;;;;;;5070448;28;20208;-84
2021/04/28 00:37:52;;;;;;;5.37;3.60;;;11.40;1.00;;;;;;5087334;28;20175;-83
2021/04/28 00:40:24;;;;;;;5.77;3.77;;;11.40;1.00;;;;;;5075761;28;20176;-81
2021/04/28 00:42:50;;;;;;;5.90;4.20;;;11.30;1.00;;;;;;5086093;28;20184;-84
2021/04/28 00:45:18;;;;;;;5.53;3.97;;;11.30;1.00;;;;;;5082194;28;20175;-81
2021/04/28 00:47:44;;;;;;;7.03;3.97;;;11.30;1.00;;;;;;5078464;28;20192;-84
2021/04/28 00:50:12;;;;;;;5.60;3.97;;;11.30;1.00;;;;;;5089004;28;20215;-84
2021/04/28 00:52:38;;;;;;;5.83;3.40;;;11.20;1.00;;;;;;5077339;28;20251;-83
2021/04/28 00:55:05;;;;;;;5.77;4.10;;;11.20;1.00;;;;;;5083870;28;20641;-78
2021/04/28 00:57:31;;;;;;;5.70;4.27;;;11.20;1.00;;;;;;5084071;28;20647;-81
2021/04/28 00:59:57;;;;;;;5.73;3.70;;;11.20;1.00;;;;;;5076572;28;20180;-82
2021/04/28 01:02:23;;;;;;;7.87;3.97;;;11.30;1.00;;;;;;5087744;28;20184;-80
2021/04/28 01:04:49;;;;;;;5.77;3.60;;;11.20;1.00;;;;;;5078209;28;20769;-81
2021/04/28 01:07:17;;;;;;;5.77;3.97;;;11.20;1.00;;;;;;5082063;28;20228;-84
2021/04/28 01:09:43;;;;;;;5.83;3.77;;;11.20;1.00;;;;;;5085615;28;20610;-83
2021/04/28 01:12:10;;;;;;;6.47;4.37;;;11.20;1.00;;;;;;5079366;28;20168;-79
2021/04/28 01:14:37;;;;;;;5.63;3.97;;;11.10;1.00;;;;;;5091620;28;20699;-77
2021/04/28 01:17:03;;;;;;;5.77;3.73;;;11.10;1.00;;;;;;5083171;28;20211;-81
2021/04/28 01:19:30;;;;;;;6.13;4.13;;;11.00;1.00;;;;;;5083791;28;20188;-81
2021/04/28 01:21:56;;;;;;;6.20;4.07;;;11.00;1.00;;;;;;5091696;28;20183;-83
2021/04/28 01:24:22;;;;;;;7.30;3.83;;;11.00;1.00;;;;;;5079180;28;20178;-85
2021/04/28 01:26:54;;;;;;;8.43;4.20;;;11.00;1.00;;;;;;5088144;28;20169;-83
2021/04/28 01:29:23;;;;;;;5.93;4.17;;;11.00;1.00;;;;;;5085825;28;20203;-80
2021/04/28 01:31:50;;;;;;;9.20;4.10;;;11.10;1.00;;;;;;5080975;28;20195;-79
2021/04/28 01:34:17;;;;;;;7.60;4.03;;;11.00;1.00;;;;;;5078138;28;20172;-81
2021/04/28 01:36:44;;;;;;;7.33;4.17;;;11.00;1.00;;;;;;5085845;28;20246;-78
2021/04/28 01:39:12;;;;;;;5.70;3.53;;;11.00;1.00;;;;;;5084081;28;20209;-81
2021/04/28 01:41:41;;;;;;;8.07;4.93;;;10.90;1.00;;;;;;5082249;28;20180;-77
2021/04/28 01:44:08;;;;;;;5.40;3.80;;;10.90;1.00;;;;;;5092308;28;20199;-79
2021/04/28 01:46:36;;;;;;;4.97;3.90;;;10.90;1.00;;;;;;5079712;28;20623;-77
2021/04/28 01:49:02;;;;;;;7.17;4.50;;;10.90;1.00;;;;;;5087663;28;20633;-83
2021/04/28 01:51:29;;;;;;;7.00;4.23;;;10.90;1.00;;;;;;5086965;28;20575;-82
2021/04/28 01:53:55;;;;;;;6.10;4.40;;;10.90;1.00;;;;;;5079687;28;20172;-81
2021/04/28 01:56:22;;;;;;;7.33;4.10;;;10.80;1.00;;;;;;5091796;28;20207;-80
2021/04/28 01:58:51;;;;;;;10.73;4.30;;;10.80;1.00;;;;;;5081186;28;20168;-84
2021/04/28 02:01:18;;;;;;;6.10;4.10;;;10.70;1.00;;;;;;5085019;28;20176;-79
2021/04/28 02:03:44;;;;;;;5.43;4.00;;;10.60;1.00;;;;;;5089188;28;20167;-82
2021/04/28 02:06:10;;;;;;;7.13;4.80;;;10.60;1.00;;;;;;5078097;28;20229;-83
2021/04/28 02:08:35;;;;;;;5.30;3.70;;;10.60;1.00;;;;;;5089963;28;20916;-79
2021/04/28 02:11:04;;;;;;;11.43;3.97;;;10.50;1.00;;;;;;5083346;28;20174;-81
2021/04/28 02:13:32;;;;;;;9.43;4.83;;;10.50;1.00;;;;;;5082881;28;20640;-81
2021/04/28 02:16:00;;;;;;;5.83;3.80;;;10.50;1.00;;;;;;5090913;28;20199;-81
2021/04/28 02:18:28;;;;;;;6.80;4.10;;;10.30;1.00;;;;;;5078202;28;20636;-80
2021/04/28 02:20:55;;;;;;;7.57;4.20;;;10.30;6.60;;;;;;5086266;28;20181;-82
2021/04/28 02:23:21;;;;;;;8.37;4.50;;;10.20;20.40;;;;;;5085614;28;20209;-82
2021/04/28 02:25:47;;;;;;;5.70;4.07;;;10.30;20.70;;;;;;5081714;28;20740;-82
2021/04/28 02:28:13;;;;;;;9.30;3.93;;;10.20;49.10;;;;;;5091099;28;20246;-80
2021/04/28 02:30:38;;;;;;;5.87;4.13;;;10.30;55.80;;;;;;5078382;28;20182;-83
2021/04/28 02:33:04;;;;;;;7.97;4.30;;;10.20;93.20;;;;;;5086388;28;20179;-81
2021/04/28 02:35:30;;;;;;;11.30;4.97;;;10.30;99.90;;;;;;5075836;28;20196;-83
2021/04/28 02:38:18;;;;;;;7.20;4.40;;;10.30;84.30;;;;;;5073161;28;20243;-82
2021/04/28 02:40:44;;;;;;;5.27;3.60;;;10.30;78.00;;;;;;5065496;28;20175;-82
2021/04/28 02:43:11;;;;;;;7.67;4.17;;;10.30;94.20;;;;;;5085033;28;20184;-78
2021/04/28 02:45:41;;;;;;;7.40;4.60;;;10.40;36.00;;;;;;5087243;28;20646;-82
2021/04/28 02:48:07;;;;;;;6.53;3.70;;;10.50;1.80;;;;;;5077928;28;20180;-82
2021/04/28 02:50:33;;;;;;;6.77;3.70;;;10.30;1.00;;;;;;5090441;28;20301;-83
2021/04/28 02:53:00;;;;;;;7.17;4.17;;;10.30;6.50;;;;;;5081669;28;20259;-83
2021/04/28 02:55:26;;;;;;;6.80;4.43;;;10.10;26.20;;;;;;5083038;28;20279;-82
2021/04/28 02:57:53;;;;;;;7.93;4.17;;;10.10;44.00;;;;;;5089540;28;20267;-81
2021/04/28 03:00:21;;;;;;;5.37;4.20;;;10.10;90.20;;;;;;5077540;28;20543;-82
2021/04/28 03:02:49;;;;;;;7.50;4.53;;;10.00;52.00;;;;;;5087935;28;20181;-82
2021/04/28 03:05:16;;;;;;;6.23;4.07;;;10.00;58.30;;;;;;5082352;28;20168;-83
2021/04/28 03:07:43;;;;;;;7.57;4.13;;;10.00;91.80;;;;;;5080302;28;20325;-82
2021/04/28 03:10:10;;;;;;;6.67;4.30;;;10.00;40.80;;;;;;5090578;28;20175;-82
2021/04/28 03:12:38;;;;;;;7.27;4.33;;;10.00;85.90;;;;;;5078226;28;20174;-77
2021/04/28 03:15:06;;;;;;;6.70;4.10;;;9.90;74.90;;;;;;5084995;28;20172;-81
2021/04/28 03:17:31;;;;;;;8.57;4.80;;;9.90;62.90;;;;;;5085789;28;20172;-79
2021/04/28 03:19:58;;;;;;;8.10;4.30;;;9.80;99.90;;;;;;5077881;28;20279;-76
2021/04/28 03:22:24;;;;;;;6.57;4.63;;;9.80;99.90;;;;;;5089703;28;20176;-82
2021/04/28 03:24:50;;;;;;;8.07;4.30;;;9.90;90.70;;;;;;5080327;28;20216;-83
2021/04/28 03:27:20;;;;;;;7.10;4.30;;;9.90;99.90;;;;;;5083223;28;20528;-81
2021/04/28 03:29:46;;;;;;;8.13;4.77;;;9.90;92.10;;;;;;5087567;28;21006;-83
2021/04/28 03:32:12;;;;;;;8.73;4.83;;;9.80;99.90;;;;;;5076679;28;20188;-83
2021/04/28 03:34:38;;;;;;;6.50;4.50;;;9.80;99.90;;;;;;5062210;28;20168;-80
2021/04/28 03:37:04;;;;;;;6.43;4.33;;;9.90;99.90;;;;;;5080266;28;20223;-83
2021/04/28 03:39:30;;;;;;;7.23;4.80;;;9.90;99.90;;;;;;5084522;28;20397;-81
2021/04/28 03:41:56;;;;;;;7.07;4.13;;;9.80;99.90;;;;;;5077342;28;20215;-82
2021/04/28 03:44:22;;;;;;;7.13;4.60;;;9.80;99.90;;;;;;5090024;28;20172;-81
2021/04/28 03:46:48;;;;;;;7.40;4.60;;;9.70;99.90;;;;;;5079303;28;20536;-83
2021/04/28 03:49:15;;;;;;;6.37;4.40;;;9.70;99.90;;;;;;5083721;28;20164;-81
2021/04/28 03:51:41;;;;;;;6.53;4.50;;;9.70;99.90;;;;;;5086192;28;20167;-80
2021/04/28 03:54:07;;;;;;;6.40;4.67;;;9.70;99.90;;;;;;5084360;28;20176;-80
2021/04/28 03:56:33;;;;;;;8.97;4.60;;;9.70;99.90;;;;;;5096867;28;20196;-83
2021/04/28 03:58:58;;;;;;;6.77;4.77;;;9.60;99.90;;;;;;5087824;28;20164;-80
2021/04/28 04:01:24;;;;;;;7.13;4.70;;;9.70;99.90;;;;;;5091953;28;20176;-77
2021/04/28 04:03:49;;;;;;;8.60;5.17;;;9.60;99.90;;;;;;5093765;28;20168;-83
2021/04/28 04:06:15;;;;;;;6.33;4.53;;;9.70;99.90;;;;;;5076618;28;20580;-83
2021/04/28 04:08:41;;;;;;;9.23;5.07;;;9.60;99.90;;;;;;5087058;28;20164;-83
2021/04/28 04:11:06;;;;;;;12.87;5.00;;;9.50;99.90;;;;;;5081353;28;20215;-83
2021/04/28 04:13:33;;;;;;;6.33;4.80;;;9.40;99.90;;;;;;5079305;28;20633;-79
2021/04/28 04:15:59;;;;;;;8.07;4.70;;;9.40;99.90;;;;;;5089164;28;20211;-83
2021/04/28 04:18:24;;;;;;;7.20;5.17;;;9.40;99.90;;;;;;5076467;28;20176;-82
2021/04/28 04:20:50;;;;;;;9.40;4.80;;;9.40;99.90;;;;;;5086369;28;20184;-81
2021/04/28 04:23:16;;;;;;;8.37;5.00;;;9.40;99.90;;;;;;5082008;28;20704;-82
2021/04/28 04:25:41;;;;;;;6.97;4.90;;;9.40;99.90;;;;;;5078920;28;20172;-81
2021/04/28 04:28:07;;;;;;;7.80;4.80;;;9.40;99.90;;;;;;5088250;28;20168;-83
2021/04/28 04:30:34;;;;;;;8.53;5.27;;;9.40;99.90;;;;;;5076239;28;20232;-82
2021/04/28 04:32:59;;;;;;;9.43;5.10;;;9.40;99.90;;;;;;5082975;28;20537;-80
2021/04/28 04:35:25;;;;;;;10.97;5.03;;;9.40;99.90;;;;;;5072435;28;20294;-78
2021/04/28 04:37:50;;;;;;;8.67;5.17;;;9.30;99.90;;;;;;5086693;28;20221;-81
2021/04/28 04:40:17;;;;;;;9.10;4.73;;;9.30;99.90;;;;;;5076030;28;20182;-83
2021/04/28 04:42:43;;;;;;;8.67;5.47;;;9.30;99.90;;;;;;5087297;28;20180;-81
2021/04/28 04:45:10;;;;;;;8.50;5.70;;;9.30;99.90;;;;;;5083172;28;20175;-80
2021/04/28 04:47:36;;;;;;;8.87;5.67;;;9.30;99.90;;;;;;5083701;28;20176;-82
2021/04/28 04:50:04;;;;;;;9.47;5.47;;;9.30;1.00;;;;;;5093066;28;20310;-77
2021/04/28 04:52:29;;;;;;;9.83;5.17;;;9.20;1.00;;;;;;5063049;28;20199;-79
2021/04/28 04:54:55;;;;;;;11.03;5.90;;;9.10;1.00;;;;;;5089170;28;20718;-79
2021/04/28 04:57:21;;;;;;;11.80;5.50;;;9.00;1.00;;;;;;5086735;28;20282;-82
2021/04/28 04:59:46;;;;;;;8.03;5.27;;;9.00;1.00;;;;;;5082054;28;20187;-80
2021/04/28 05:02:13;;;;;;;12.67;5.47;;;9.20;1.00;;;;;;5092849;28;20191;-80
2021/04/28 05:04:39;;;;;;;11.33;6.07;;;9.30;1.00;;;;;;5081436;28;20172;-80
2021/04/28 05:07:04;;;;;;;9.83;5.87;;;9.30;1.00;;;;;;5087534;28;20173;-83
2021/04/28 05:09:30;;;;;;;13.60;6.17;;;9.40;1.00;;;;;;5087951;28;20254;-83
2021/04/28 05:11:55;;;;;;;8.03;6.03;;;9.50;1.00;;;;;;5080502;28;20176;-83
2021/04/28 05:14:21;;;;;;;11.13;6.00;;;9.60;99.90;;;;;;5092819;28;20183;-81
2021/04/28 05:16:47;;;;;;;12.43;6.23;;;9.80;99.90;;;;;;5081685;28;20214;-81
2021/04/28 05:19:13;;;;;;;10.50;5.47;;;9.60;99.90;;;;;;5086178;28;20251;-82
2021/04/28 05:21:38;;;;;;;12.53;6.00;;;9.60;1.00;;;;;;5087703;28;20267;-80
2021/04/28 05:24:04;;;;;;;12.57;5.70;;;9.60;99.90;;;;;;5079102;28;20172;-84
2021/04/28 05:26:30;;;;;;;14.90;6.63;;;9.60;99.90;;;;;;5092166;28;20175;-84
2021/04/28 05:28:56;;;;;;;17.53;6.20;;;9.50;1.00;;;;;;5082862;28;20183;-78
2021/04/28 05:31:21;;;;;;;10.57;6.03;;;9.30;1.00;;;;;;5083428;28;20230;-78
2021/04/28 05:33:47;;;;;;;12.87;6.40;;;9.20;1.00;;;;;;5076778;28;20210;-83
2021/04/28 05:36:13;;;;;;;11.37;6.20;;;9.10;1.00;;;;;;5088799;28;20683;-85
2021/04/28 05:38:38;;;;;;;14.67;6.00;;;9.00;1.00;;;;;;5090938;28;20168;-85
2021/04/28 05:41:04;;;;;;;11.50;5.80;;;9.10;1.00;;;;;;5084068;28;20202;-80
2021/04/28 05:43:30;;;;;;;13.03;5.90;;;9.00;1.00;;;;;;5083754;28;20168;-83
2021/04/28 05:45:56;;;;;;;13.50;7.03;;;9.00;1.00;;;;;;5075469;28;20535;-82
2021/04/28 05:48:22;;;;;;;20.70;6.63;;;8.90;1.00;;;;;;5091913;28;20257;-81
2021/04/28 05:50:47;;;;;;;11.37;6.00;;;8.80;1.00;;;;;;5080182;28;20317;-82
2021/04/28 05:53:13;;;;;;;16.27;6.37;;;8.80;1.00;;;;;;5084350;28;20582;-77
2021/04/28 05:55:42;;;;;;;11.97;6.30;;;8.90;99.90;;;;;;5086703;28;20199;-81
2021/04/28 05:58:08;;;;;;;10.40;6.00;;;8.90;1.00;;;;;;5078143;28;20284;-80
2021/04/28 06:00:35;;;;;;;8.13;6.13;;;8.90;1.00;;;;;;5090450;28;20692;-79
2021/04/28 06:03:01;;;;;;;10.97;6.37;;;8.90;1.00;;;;;;5082705;28;20239;-79
2021/04/28 06:05:27;;;;;;;15.53;7.17;;;8.90;1.00;;;;;;5082311;28;20180;-79
2021/04/28 06:07:53;;;;;;;12.23;7.17;;;8.90;10.90;;;;;;5089904;28;20163;-79
2021/04/28 06:10:18;;;;;;;19.90;7.27;;;8.90;12.40;;;;;;5078235;28;20214;-80
2021/04/28 06:12:46;;;;;;;8.50;5.93;;;8.90;99.90;;;;;;5088613;28;20168;-81
2021/04/28 06:15:14;;;;;;;17.43;6.63;;;8.90;99.90;;;;;;5083719;28;20202;-82
2021/04/28 06:17:41;;;;;;;18.60;8.17;;;9.00;94.90;;;;;;5077597;28;20180;-81
2021/04/28 06:20:10;;;;;;;8.37;6.53;;;9.20;97.40;;;;;;5071975;28;20236;-78
2021/04/28 06:22:35;;;;;;;11.70;6.83;;;9.30;1.00;;;;;;5073799;28;20479;-79
2021/04/28 06:25:01;;;;;;;14.20;6.27;;;9.40;1.00;;;;;;5081153;28;20176;-79
2021/04/28 06:27:26;;;;;;;8.47;6.70;;;9.30;1.00;;;;;;5080290;28;20186;-80
2021/04/28 06:29:52;;;;;;;19.50;7.57;;;9.40;1.00;;;;;;5087979;28;20631;-78
2021/04/28 06:32:18;;;;;;;11.20;6.50;;;9.50;1.00;;;;;;5075902;28;20241;-80
2021/04/28 06:34:44;;;;;;;15.43;7.33;;;9.70;1.00;;;;;;5078701;28;20516;-78
2021/04/28 06:37:10;;;;;;;13.17;6.83;;;9.80;1.00;;;;;;5078080;28;20292;-81
2021/04/28 06:39:36;;;;;;;18.30;8.23;;;10.00;1.00;;;;;;5083364;28;20172;-78
2021/04/28 06:42:02;;;;;;;14.50;7.40;;;10.20;1.00;;;;;;5075754;28;20194;-78
2021/04/28 06:44:28;;;;;;;11.17;6.90;;;10.30;99.90;;;;;;5087039;28;20168;-80
2021/04/28 06:46:53;;;;;;;15.60;7.10;;;10.40;99.90;;;;;;5079485;28;20288;-79
2021/04/28 06:49:19;;;;;;;12.20;6.93;;;10.40;99.90;;;;;;5082781;28;20183;-78
2021/04/28 06:51:45;;;;;;;11.80;6.93;;;10.60;99.90;;;;;;5086455;28;20179;-79
2021/04/28 06:54:10;;;;;;;11.40;6.83;;;10.50;99.90;;;;;;5065485;28;20635;-77
2021/04/28 06:56:41;;;;;;;10.23;6.73;;;10.40;99.90;;;;;;5077604;28;20260;-78
2021/04/28 06:59:07;;;;;;;13.10;7.13;;;10.50;99.90;;;;;;5084555;28;20221;-78
2021/04/28 07:01:33;;;;;;;13.23;7.67;;;10.60;99.90;;;;;;5085130;28;20175;-78
2021/04/28 07:03:59;;;;;;;16.50;7.47;;;10.80;99.90;;;;;;5076591;28;20176;-77
2021/04/28 07:06:24;;;;;;;15.37;7.83;;;10.90;99.90;;;;;;5089191;28;20241;-77
2021/04/28 07:08:50;;;;;;;14.73;8.20;;;10.90;99.90;;;;;;5078480;28;20174;-77
2021/04/28 07:11:15;;;;;;;13.53;7.93;;;10.80;99.90;;;;;;5082937;28;20187;-80
2021/04/28 07:13:41;;;;;;;10.70;7.57;;;10.80;99.90;;;;;;5086643;28;20179;-79
2021/04/28 07:16:07;;;;;;;11.60;8.40;;;10.80;99.90;;;;;;5091770;28;20225;-79
2021/04/28 07:18:32;;;;;;;8.67;7.23;;;10.80;99.90;;;;;;5076985;28;20168;-81
2021/04/28 07:20:58;;;;;;;12.90;8.00;;;10.70;99.90;;;;;;5085543;28;20188;-80
2021/04/28 07:23:24;;;;;;;11.80;8.23;;;10.70;99.90;;;;;;5084102;28;20239;-79
2021/04/28 07:25:49;;;;;;;14.27;8.07;;;10.90;99.90;;;;;;5078009;28;20263;-78
2021/04/28 07:28:15;;;;;;;13.97;8.13;;;11.00;99.90;;;;;;5089696;28;20168;-78
2021/04/28 07:30:41;;;;;;;13.83;8.10;;;11.10;99.90;;;;;;5077906;28;20183;-78
2021/04/28 07:33:07;;;;;;;15.57;7.87;;;11.00;99.90;;;;;;5084166;28;20176;-79
2021/04/28 07:35:32;;;;;;;15.37;8.13;;;11.00;99.90;;;;;;5072220;28;20184;-80
2021/04/28 07:37:58;;;;;;;16.23;8.27;;;11.00;99.90;;;;;;5088442;28;20176;-79
2021/04/28 07:40:24;;;;;;;14.13;7.90;;;11.00;99.90;;;;;;5075997;28;20648;-77
2021/04/28 07:42:50;;;;;;;14.67;8.57;;;11.10;99.90;;;;;;5086466;28;20176;-81
2021/04/28 07:45:17;;;;;;;16.63;7.97;;;11.00;99.90;;;;;;5082609;28;20179;-82
2021/04/28 07:47:43;;;;;;;12.13;8.03;;;11.10;99.90;;;;;;5078539;28;20176;-78
2021/04/28 07:50:09;;;;;;;13.83;7.43;;;11.10;99.90;;;;;;5077463;28;20206;-79
2021/04/28 07:52:35;;;;;;;17.00;9.27;;;11.10;99.90;;;;;;5088486;28;20516;-78
2021/04/28 07:57:52;;;;;;;10.00;7.87;;;11.30;99.90;;;;;;5077925;28;20216;-82
2021/04/28 08:00:23;;;;;;;12.40;8.33;;;11.30;99.90;;;;;;5067831;28;20176;-79
2021/04/28 08:02:48;;;;;;;15.00;9.60;;;11.50;99.90;;;;;;5063739;28;20184;-81
2021/04/28 08:05:14;;;;;;;15.27;8.40;;;11.80;99.90;;;;;;5072251;28;20171;-82
2021/04/28 08:07:40;;;;;;;12.17;9.17;;;12.00;99.90;;;;;;5079098;28;20624;-79
2021/04/28 08:10:07;;;;;;;14.10;8.93;;;12.10;99.90;;;;;;5073255;28;20573;-81
2021/04/28 08:12:33;;;;;;;13.40;9.27;;;12.30;25.70;;;;;;5088579;28;20188;-78
2021/04/28 08:15:00;;;;;;;14.47;9.27;;;12.50;20.50;;;;;;5080588;28;20706;-78
2021/04/28 08:17:28;;;;;;;18.53;9.13;;;12.80;29.40;;;;;;5082652;28;20266;-79
2021/04/28 08:19:54;;;;;;;15.83;9.30;;;12.70;19.20;;;;;;5091399;28;20195;-80
2021/04/28 08:22:20;;;;;;;19.23;10.50;;;12.90;2.00;;;;;;5078511;28;20195;-78
2021/04/28 08:24:45;;;;;;;15.97;10.13;;;13.10;8.30;;;;;;5087428;28;20244;-78
2021/04/28 08:27:11;;;;;;;20.20;10.03;;;13.10;40.60;;;;;;5083091;28;20277;-82
2021/04/28 08:29:37;;;;;;;18.17;9.60;;;13.10;8.90;;;;;;5081340;28;20215;-77
2021/04/28 08:32:04;;;;;;;19.47;9.47;;;12.90;8.60;;;;;;5091094;28;20265;-78
2021/04/28 08:34:29;;;;;;;17.83;9.43;;;12.90;25.20;;;;;;5074160;28;20254;-81
2021/04/28 08:36:56;;;;;;;18.33;9.30;;;12.90;21.60;;;;;;5078242;28;20723;-78
2021/04/28 08:39:21;;;;;;;21.00;9.50;;;12.80;28.90;;;;;;5074017;28;20167;-76
2021/04/28 08:41:49;;;;;;;18.27;10.57;;;12.70;60.00;;;;;;5077937;28;20180;-78
2021/04/28 08:44:29;;;;;;;17.10;9.87;;;13.00;99.90;;;;;;5073435;28;20199;-82
2021/04/28 08:46:54;;;;;;;16.80;9.73;;;13.10;75.00;;;;;;5084045;28;20263;-83
2021/04/28 08:49:23;;;;;;;16.63;9.37;;;13.00;90.00;;;;;;5069309;28;20189;-87
2021/04/28 08:51:49;;;;;;;13.17;10.00;;;12.90;80.20;;;;;;5052106;28;20594;-88
2021/04/28 08:54:15;;;;;;;18.93;9.73;;;13.10;99.90;;;;;;5055550;28;20180;-78
2021/04/28 08:56:50;;;;;;;15.50;9.10;;;13.10;90.30;;;;;;5087090;28;20196;-79
2021/04/28 08:59:15;;;;;;;15.03;9.70;;;13.40;35.70;;;;;;5081668;28;20521;-84
2021/04/28 09:01:42;;;;;;;18.27;16.23;;;13.40;1.00;;;;;;5078398;28;20645;-84
2021/04/28 09:04:16;;;;;;;16.10;9.43;;;13.50;14.00;;;;;;5073078;28;20318;-81
2021/04/28 09:06:42;;;;;;;18.60;9.43;;;13.80;1.00;;;;;;5087129;28;20171;-86
2021/04/28 09:09:13;;;;;;;15.40;9.27;;;13.90;1.00;;;;;;5080504;28;20216;-84
2021/04/28 09:11:53;;;;;;;13.20;9.13;;;14.00;1.00;;;;;;5079859;28;20173;-87
2021/04/28 09:14:35;;;;;;;16.10;9.47;;;14.20;1.00;;;;;;5088563;28;20179;-84
2021/04/28 09:17:02;;;;;;;13.80;9.17;;;14.40;1.00;;;;;;5079743;28;20195;-80
2021/04/28 09:19:35;;;;;;;15.87;10.33;;;14.50;1.00;;;;;;5080283;28;20196;-78
2021/04/28 09:22:04;;;;;;;14.00;9.80;;;14.50;1.00;;;;;;5071308;28;20172;-90
2021/04/28 09:24:36;;;;;;;13.47;10.10;;;14.50;1.00;;;;;;5062584;28;20240;-81
2021/04/28 09:27:03;;;;;;;14.43;10.83;;;14.70;1.00;;;;;;5096056;28;20893;-87
2021/04/28 09:29:32;;;;;;;13.47;9.13;;;14.80;1.00;;;;;;5078492;28;20667;-87
2021/04/28 09:32:05;;;;;;;15.83;9.33;;;15.00;1.00;;;;;;5088595;28;20207;-77
2021/04/28 09:34:37;;;;;;;16.53;10.73;;;15.00;1.00;;;;;;5074524;28;20204;-82
2021/04/28 09:37:07;;;;;;;13.97;10.00;;;15.20;1.00;;;;;;5082639;28;20211;-80
2021/04/28 09:39:58;;;;;;;21.30;11.17;;;15.30;1.00;;;;;;5082868;28;20175;-86
2021/04/28 09:42:24;;;;;;;14.93;10.13;;;15.50;1.00;;;;;;5090698;28;20180;-87
2021/04/28 09:44:49;;;;;;;15.57;10.77;;;15.60;1.00;;;;;;5074868;28;20645;-83
2021/04/28 09:47:21;;;;;;;13.87;10.63;;;15.50;1.00;;;;;;5075283;28;20710;-78
2021/04/28 09:49:59;;;;;;;19.93;10.77;;;15.50;1.00;;;;;;5087290;28;20863;-83
2021/04/28 09:52:33;;;;;;;16.33;10.33;;;15.70;1.00;;;;;;5074483;28;20181;-88
2021/04/28 09:55:08;;;;;;;14.13;9.97;;;15.70;1.00;;;;;;5073111;28;20185;-87
2021/04/28 09:57:41;;;;;;;15.87;10.53;;;15.70;1.00;;;;;;5075002;28;20199;-82
2021/04/28 10:00:30;;;;;;;13.37;9.30;;;15.60;1.00;;;;;;5074539;28;20169;-86
2021/04/28 10:02:58;;;;;;;13.00;9.03;;;15.60;1.00;;;;;;5074477;28;20654;-85
2021/04/28 10:05:35;;;;;;;13.47;9.53;;;15.70;1.00;;;;;;5077865;28;20195;-91
2021/04/28 10:08:16;;;;;;;11.80;9.50;;;15.90;1.00;;;;;;5078288;28;20164;-91
2021/04/28 10:10:57;;;;;;;11.57;8.53;;;16.00;1.00;;;;;;5077992;28;20167;-91
2021/04/28 10:13:23;;;;;;;13.07;9.17;;;16.00;1.00;;;;;;5077603;28;20172;-85
2021/04/28 10:15:49;;;;;;;15.00;9.77;;;16.10;1.00;;;;;;5073205;28;20195;-84
2021/04/28 10:18:16;;;;;;;13.23;9.77;;;16.20;1.00;;;;;;5057295;28;20185;-88
2021/04/28 10:20:44;;;;;;;12.77;10.33;;;16.20;1.00;;;;;;5054784;28;20183;-83
2021/04/28 10:23:15;;;;;;;12.87;9.97;;;16.10;1.00;;;;;;5054392;28;20181;-88
2021/04/28 10:25:41;;;;;;;18.93;10.77;;;16.20;1.00;;;;;;5075032;28;20194;-84
2021/04/28 10:28:09;;;;;;;14.23;10.20;;;16.30;1.00;;;;;;5094999;28;20156;-85
2021/04/28 10:30:45;;;;;;;18.03;9.53;;;16.30;1.00;;;;;;5095190;28;20221;-92
2021/04/28 10:33:24;;;;;;;16.67;10.87;;;16.20;1.00;;;;;;5089051;28;20192;-88
2021/04/28 10:35:51;;;;;;;15.80;10.93;;;16.20;1.00;;;;;;5082813;28;20188;-87
2021/04/28 10:38:25;;;;;;;14.27;10.70;;;16.30;1.00;;;;;;5087104;28;20172;-87
2021/04/28 10:40:51;;;;;;;14.93;11.53;;;16.60;1.00;;;;;;5074165;28;20168;-89
2021/04/28 10:43:19;;;;;;;14.57;11.27;;;16.70;1.00;;;;;;5087732;28;20172;-89
2021/04/28 10:45:45;;;;;;;15.33;10.70;;;16.70;1.00;;;;;;5079334;28;20675;-87
2021/04/28 10:48:37;;;;;;;16.30;11.63;;;16.80;1.00;;;;;;5064166;28;20214;-79
2021/04/28 10:51:12;;;;;;;14.23;10.90;;;16.70;1.00;;;;;;5068695;28;20203;-79
2021/04/28 10:53:37;;;;;;;15.37;11.57;;;16.80;1.00;;;;;;5083396;28;20177;-79
2021/04/28 10:56:13;;;;;;;18.03;11.57;;;16.80;1.00;;;;;;5052959;28;20574;-87
2021/04/28 10:58:43;;;;;;;14.97;11.90;;;16.70;1.00;;;;;;5066207;28;20847;-78
2021/04/28 11:01:08;;;;;;;16.70;12.30;;;16.70;1.00;;;;;;5067024;28;20320;-88
2021/04/28 11:03:42;;;;;;;18.40;11.87;;;16.90;1.00;;;;;;5054602;28;20718;-81
2021/04/28 11:06:23;;;;;;;17.37;12.37;;;17.00;1.00;;;;;;5052730;28;20169;-88
2021/04/28 11:09:03;;;;;;;17.07;12.13;;;17.30;1.00;;;;;;5053649;28;20196;-80
2021/04/28 11:11:38;;;;;;;17.63;12.83;;;17.20;1.00;;;;;;5053561;28;20255;-80
2021/04/28 11:14:20;;;;;;;15.00;12.77;;;17.30;1.00;;;;;;5054555;28;20161;-89
2021/04/28 11:16:50;;;;;;;16.13;12.37;;;17.40;1.00;;;;;;5056682;28;20283;-81
2021/04/28 11:19:36;;;;;;;17.93;13.30;;;17.40;1.00;;;;;;5059941;28;20214;-90
2021/04/28 11:22:12;;;;;;;16.10;12.70;;;17.70;1.00;;;;;;5054755;28;20227;-85
2021/04/28 11:25:04;;;;;;;18.63;13.43;;;17.70;1.00;;;;;;5058854;28;20204;-85
2021/04/28 11:27:55;;;;;;;15.23;13.07;;;17.80;1.00;;;;;;5066501;28;20242;-87
2021/04/28 11:30:44;;;;;;;20.57;14.43;;;17.80;1.00;;;;;;5062432;28;20637;-88
2021/04/28 11:33:34;;;;;;;19.70;13.57;;;17.80;1.00;;;;;;5063369;28;20720;-81
2021/04/28 11:36:03;;;;;;;15.97;13.43;;;17.80;1.00;;;;;;5051998;28;20209;-84
2021/04/28 11:38:35;;;;;;;19.47;13.10;;;18.00;1.00;;;;;;5060104;28;20170;-79
2021/04/28 11:41:10;;;;;;;18.13;12.40;;;18.10;1.00;;;;;;5072855;28;20173;-88
2021/04/28 11:43:41;;;;;;;16.67;12.90;;;18.20;1.00;;;;;;5073154;28;20164;-85
2021/04/28 11:46:12;;;;;;;16.20;12.93;;;18.30;1.00;;;;;;5067530;28;20180;-87
2021/04/28 11:48:40;;;;;;;18.60;14.03;;;18.30;1.00;;;;;;5071866;28;20172;-78
2021/04/28 11:51:09;;;;;;;19.00;13.70;;;18.30;1.00;;;;;;5074621;28;20276;-87
2021/04/28 11:53:51;;;;;;;16.87;13.70;;;18.20;1.00;;;;;;5073440;28;20172;-86
2021/04/28 11:56:36;;;;;;;16.00;13.20;;;18.10;1.00;;;;;;5075626;28;20196;-88
2021/04/28 11:59:03;;;;;;;17.20;13.37;;;18.20;1.00;;;;;;5057921;28;20164;-84
2021/04/28 12:01:31;;;;;;;18.03;13.53;;;18.40;1.00;;;;;;5072646;28;20203;-83
2021/04/28 12:04:06;;;;;;;18.00;14.60;;;18.20;1.00;;;;;;5073865;28;20188;-82
2021/04/28 12:06:44;;;;;;;15.23;13.67;;;18.20;1.00;;;;;;5073983;28;20172;-89
2021/04/28 12:09:11;;;;;;;17.43;14.27;;;18.30;1.00;;;;;;5053803;28;20180;-88
2021/04/28 12:11:38;;;;;;;17.20;14.43;;;18.60;1.00;;;;;;5053456;28;20169;-84
2021/04/28 12:14:04;;;;;;;19.97;15.00;;;18.40;1.00;;;;;;5052734;28;20169;-84
2021/04/28 12:16:30;;;;;;;16.73;14.23;;;18.40;1.00;;;;;;5054049;28;20564;-81
2021/04/28 12:19:10;;;;;;;20.03;14.73;;;18.60;1.00;;;;;;5052704;28;20189;-81
2021/04/28 12:21:36;;;;;;;24.77;14.97;;;18.60;1.00;;;;;;5052485;28;20180;-85
2021/04/28 12:24:02;;;;;;;17.17;13.93;;;18.60;1.00;;;;;;5052508;28;20558;-81
2021/04/28 12:26:28;;;;;;;15.50;13.67;;;18.70;1.00;;;;;;5052281;28;20638;-84
2021/04/28 12:28:54;;;;;;;19.47;13.77;;;18.70;1.00;;;;;;5050899;28;20219;-91
2021/04/28 12:31:47;;;;;;;16.67;14.37;;;18.90;1.00;;;;;;5052552;28;20182;-83
2021/04/28 12:34:19;;;;;;;24.17;15.50;;;19.10;1.00;;;;;;5052748;28;20668;-82
2021/04/28 12:36:46;;;;;;;17.53;14.03;;;19.40;1.00;;;;;;5051061;28;20219;-86
2021/04/28 12:39:29;;;;;;;17.90;14.67;;;19.40;1.00;;;;;;5052934;28;20222;-87
2021/04/28 12:41:56;;;;;;;19.33;14.70;;;19.50;1.00;;;;;;5052606;28;20161;-85
2021/04/28 12:44:23;;;;;;;17.13;15.33;;;19.80;1.00;;;;;;5052966;28;20203;-85
2021/04/28 12:46:50;;;;;;;16.97;14.27;;;19.80;1.00;;;;;;5053211;28;20177;-77
2021/04/28 12:49:17;;;;;;;15.83;13.83;;;19.80;1.00;;;;;;5053063;28;20168;-82
2021/04/28 12:51:50;;;;;;;18.97;14.33;;;19.70;1.00;;;;;;5052524;28;20656;-81
2021/04/28 12:54:32;;;;;;;18.00;14.40;;;19.60;1.00;;;;;;5052879;28;20530;-83
2021/04/28 12:56:58;;;;;;;19.47;14.27;;;19.60;1.00;;;;;;5053547;28;20237;-84